Time;durP1;ratioP1;P1;durP2;ratioP2;P2;SDS_P1;SDS_P2;PMS_P1;PMS_P2;Temp;Humidity;BMP_temperature;BMP_pressure;BME280_temperature;BME280_humidity;BME280_pressure;Samples;Min_cycle;Max_cycle;Signal;HPM_P1;HPM_P2
2022/09/11 00:00:15;;;;;;;1.50;0.72;;;17.10;99.90;;;;;;1894944;75;21578;-79
2022/09/11 00:03:12;;;;;;;1.17;0.60;;;17.10;99.90;;;;;;1902782;75;21079;-80
2022/09/11 00:06:16;;;;;;;1.35;0.60;;;17.10;99.90;;;;;;1895538;75;21638;-79
2022/09/11 00:09:09;;;;;;;4.17;0.82;;;17.00;99.90;;;;;;1896892;75;21126;-80
2022/09/11 00:12:01;;;;;;;2.22;0.65;;;17.00;99.90;;;;;;1900341;75;21067;-79
2022/09/11 00:14:52;;;;;;;2.12;0.60;;;17.00;99.90;;;;;;1895886;75;21087;-78
2022/09/11 00:17:44;;;;;;;1.17;0.60;;;17.00;99.90;;;;;;1895856;75;21058;-78
2022/09/11 00:20:37;;;;;;;1.75;0.78;;;17.00;99.90;;;;;;1895648;75;21109;-78
2022/09/11 00:23:29;;;;;;;1.55;0.50;;;16.90;99.90;;;;;;1899010;75;21063;-79
2022/09/11 00:26:21;;;;;;;1.82;0.60;;;16.90;99.90;;;;;;1896903;75;21094;-78
2022/09/11 00:29:13;;;;;;;1.20;0.60;;;16.80;99.90;;;;;;1887112;75;21590;-78
2022/09/11 00:32:05;;;;;;;3.50;0.80;;;16.80;99.90;;;;;;1886448;75;21165;-78
2022/09/11 00:34:59;;;;;;;2.42;1.02;;;16.80;99.90;;;;;;1897845;75;21137;-79
2022/09/11 00:37:51;;;;;;;2.12;0.70;;;16.80;99.90;;;;;;1898067;75;21097;-79
2022/09/11 00:40:47;;;;;;;2.70;0.70;;;16.80;99.90;;;;;;1894652;75;21054;-79
2022/09/11 00:43:58;;;;;;;1.60;0.70;;;16.80;99.90;;;;;;1895080;75;21138;-78
2022/09/11 00:46:52;;;;;;;2.95;0.70;;;16.80;99.90;;;;;;1894517;75;21292;-79
2022/09/11 00:49:46;;;;;;;1.27;0.85;;;16.80;99.90;;;;;;1895817;75;21110;-79
2022/09/11 00:52:41;;;;;;;2.58;0.75;;;16.80;99.90;;;;;;1900556;75;21084;-79
2022/09/11 00:55:36;;;;;;;3.72;0.80;;;16.70;99.90;;;;;;1895929;75;21118;-79
2022/09/11 00:58:30;;;;;;;1.92;0.65;;;16.70;99.90;;;;;;1895143;75;21047;-79
2022/09/11 01:01:21;;;;;;;1.45;0.80;;;16.70;99.90;;;;;;1924547;73;21111;-78
2022/09/11 01:04:13;;;;;;;3.17;0.80;;;16.70;99.90;;;;;;1891172;75;21470;-78
2022/09/11 01:07:04;;;;;;;3.25;0.80;;;16.70;99.90;;;;;;1897797;75;21053;-78
2022/09/11 01:09:58;;;;;;;2.85;1.00;;;16.60;99.90;;;;;;1894725;75;21056;-78
2022/09/11 01:12:53;;;;;;;1.75;0.80;;;16.60;99.90;;;;;;1912684;75;21067;-79
2022/09/11 01:15:47;;;;;;;2.52;0.60;;;16.70;99.90;;;;;;1905572;75;21063;-77
2022/09/11 01:18:41;;;;;;;2.60;0.70;;;16.60;99.90;;;;;;1899706;75;21100;-76
2022/09/11 01:21:51;;;;;;;1.72;0.70;;;16.60;99.90;;;;;;1896009;75;21178;-75
2022/09/11 01:24:57;;;;;;;1.65;0.70;;;16.60;99.90;;;;;;1894642;75;21294;-77
2022/09/11 01:27:50;;;;;;;1.40;0.55;;;16.50;99.90;;;;;;1894697;75;21684;-76
2022/09/11 01:30:47;;;;;;;2.62;0.78;;;16.50;99.90;;;;;;1894462;75;21121;-76
2022/09/11 01:33:43;;;;;;;1.95;0.72;;;16.40;99.90;;;;;;1894949;75;21130;-76
2022/09/11 01:36:38;;;;;;;1.65;0.60;;;16.30;99.90;;;;;;1898448;75;21161;-75
2022/09/11 01:39:34;;;;;;;1.40;0.68;;;16.10;99.90;;;;;;1897274;75;21566;-78
2022/09/11 01:42:29;;;;;;;2.80;0.82;;;16.00;99.90;;;;;;1884779;75;21055;-79
2022/09/11 01:45:24;;;;;;;2.60;0.62;;;16.00;99.90;;;;;;1905147;75;21219;-79
2022/09/11 01:48:19;;;;;;;2.87;0.90;;;15.90;99.90;;;;;;1906277;75;21120;-79
2022/09/11 01:51:15;;;;;;;1.82;0.53;;;15.90;99.90;;;;;;1903465;75;21112;-78
2022/09/11 01:54:13;;;;;;;2.75;0.60;;;15.90;99.90;;;;;;1899175;75;21113;-78
2022/09/11 01:57:09;;;;;;;2.42;0.78;;;15.90;99.90;;;;;;1895188;75;21160;-78
2022/09/11 02:00:04;;;;;;;1.70;0.60;;;15.90;99.90;;;;;;1895022;75;21094;-79
2022/09/11 02:02:59;;;;;;;1.27;0.72;;;16.00;99.90;;;;;;1892350;75;21520;-78
2022/09/11 02:05:54;;;;;;;1.37;0.80;;;16.00;99.90;;;;;;1903803;75;21546;-79
2022/09/11 02:08:48;;;;;;;3.92;1.00;;;16.10;99.90;;;;;;1901837;75;21172;-79
2022/09/11 02:11:44;;;;;;;1.52;0.85;;;16.10;99.90;;;;;;1892636;75;21130;-78
2022/09/11 02:14:39;;;;;;;2.30;0.75;;;16.10;99.90;;;;;;1910189;75;21110;-78
2022/09/11 02:17:35;;;;;;;2.77;0.82;;;16.10;99.90;;;;;;1906287;75;21125;-79
2022/09/11 02:20:27;;;;;;;2.30;0.72;;;16.10;99.90;;;;;;1903908;75;21125;-81
2022/09/11 02:23:19;;;;;;;2.17;0.70;;;16.10;99.90;;;;;;1899133;75;21055;-79
2022/09/11 02:26:17;;;;;;;1.52;0.70;;;16.10;99.90;;;;;;1882691;75;21176;-79
2022/09/11 02:29:09;;;;;;;1.92;0.72;;;16.20;99.90;;;;;;1894900;75;21099;-79
2022/09/11 02:32:02;;;;;;;2.77;0.62;;;16.20;99.90;;;;;;1915901;75;21506;-78
2022/09/11 02:34:55;;;;;;;4.42;0.90;;;16.10;99.90;;;;;;1902115;75;21046;-79
2022/09/11 02:37:52;;;;;;;1.92;0.80;;;16.10;99.90;;;;;;1891850;75;21110;-78
2022/09/11 02:40:52;;;;;;;1.05;0.60;;;16.10;99.90;;;;;;1906642;75;21092;-78
2022/09/11 02:43:50;;;;;;;2.55;0.70;;;16.10;99.90;;;;;;1906326;75;21140;-78
2022/09/11 02:47:06;;;;;;;2.00;1.00;;;16.10;99.90;;;;;;1874217;75;21106;-78
2022/09/11 02:50:03;;;;;;;3.10;0.80;;;16.10;99.90;;;;;;1882632;75;21123;-78
2022/09/11 02:53:00;;;;;;;1.85;0.85;;;16.10;99.90;;;;;;1896775;75;21144;-77
2022/09/11 02:55:57;;;;;;;1.15;0.53;;;16.00;99.90;;;;;;1901043;75;21106;-77
2022/09/11 02:58:54;;;;;;;2.77;0.88;;;16.00;99.90;;;;;;1896691;75;21055;-77
2022/09/11 03:01:53;;;;;;;2.12;0.70;;;15.90;99.90;;;;;;1894546;75;21173;-77
2022/09/11 03:04:47;;;;;;;2.72;0.80;;;15.90;99.90;;;;;;1882498;75;21039;-80
2022/09/11 03:07:38;;;;;;;2.58;0.60;;;15.90;99.90;;;;;;1882311;75;21108;-80
2022/09/11 03:10:30;;;;;;;1.17;0.70;;;15.80;99.90;;;;;;1901327;75;21173;-80
2022/09/11 03:13:22;;;;;;;2.15;0.90;;;15.80;99.90;;;;;;1904310;74;21115;-79
2022/09/11 03:16:14;;;;;;;2.08;0.60;;;15.80;99.90;;;;;;1910552;74;21197;-78
2022/09/11 03:19:06;;;;;;;1.35;0.60;;;15.70;99.90;;;;;;1910996;74;21680;-77
2022/09/11 03:21:58;;;;;;;2.87;0.65;;;15.70;99.90;;;;;;1929149;73;21065;-78
2022/09/11 03:24:49;;;;;;;1.95;0.53;;;15.70;99.90;;;;;;1870052;76;21046;-79
2022/09/11 03:27:42;;;;;;;0.82;0.50;;;15.70;99.90;;;;;;1910909;74;21055;-82
2022/09/11 03:30:35;;;;;;;1.70;0.62;;;15.70;99.90;;;;;;1910145;74;21139;-78
2022/09/11 03:33:26;;;;;;;4.72;0.75;;;15.70;99.90;;;;;;1912579;74;21122;-78
2022/09/11 03:36:19;;;;;;;2.17;0.72;;;15.70;99.90;;;;;;1899684;75;21085;-77
2022/09/11 03:39:10;;;;;;;3.83;0.95;;;15.70;99.90;;;;;;1921944;74;21058;-79
2022/09/11 03:42:02;;;;;;;1.60;0.60;;;15.70;99.90;;;;;;1922149;74;21118;-79
2022/09/11 03:44:54;;;;;;;0.80;0.50;;;15.70;99.90;;;;;;1920829;74;21168;-79
2022/09/11 03:47:45;;;;;;;0.95;0.50;;;15.70;99.90;;;;;;1916460;74;21126;-79
2022/09/11 03:50:38;;;;;;;1.17;0.60;;;15.70;99.90;;;;;;1910256;74;21175;-79
2022/09/11 03:53:32;;;;;;;0.90;0.53;;;15.70;99.90;;;;;;1926973;74;21098;-78
2022/09/11 03:56:25;;;;;;;2.58;0.70;;;15.60;99.90;;;;;;1906101;74;21090;-77
2022/09/11 03:59:18;;;;;;;1.50;0.50;;;15.60;99.90;;;;;;1841982;77;21072;-77
2022/09/11 04:02:10;;;;;;;1.25;0.50;;;15.70;99.90;;;;;;1912647;74;21055;-76
2022/09/11 04:05:02;;;;;;;2.00;0.60;;;15.70;99.90;;;;;;1910741;74;21066;-78
2022/09/11 04:07:54;;;;;;;1.70;0.68;;;15.60;99.90;;;;;;1910718;74;21085;-79
2022/09/11 04:10:46;;;;;;;1.42;0.70;;;15.60;99.90;;;;;;1913192;74;21057;-79
2022/09/11 04:13:40;;;;;;;4.40;0.72;;;15.60;99.90;;;;;;1914219;74;21070;-78
2022/09/11 04:16:35;;;;;;;2.87;0.68;;;15.50;99.90;;;;;;1910696;74;21652;-79
2022/09/11 04:19:28;;;;;;;1.98;0.57;;;15.50;99.90;;;;;;1910958;74;21046;-76
2022/09/11 04:22:20;;;;;;;1.37;0.75;;;15.50;99.90;;;;;;1911119;74;21054;-80
2022/09/11 04:25:13;;;;;;;1.92;0.55;;;15.50;99.90;;;;;;1915608;74;21046;-79
2022/09/11 04:28:04;;;;;;;2.75;0.80;;;15.50;99.90;;;;;;1912127;74;21079;-80
2022/09/11 04:30:56;;;;;;;1.90;0.80;;;15.50;99.90;;;;;;1903633;74;21055;-79
2022/09/11 04:33:48;;;;;;;1.87;0.90;;;15.40;99.90;;;;;;1901757;74;21062;-85
2022/09/11 04:36:41;;;;;;;4.62;0.78;;;15.40;99.90;;;;;;1932321;74;21167;-77
2022/09/11 04:39:35;;;;;;;2.77;0.70;;;15.30;99.90;;;;;;1914209;74;21102;-81
2022/09/11 04:42:26;;;;;;;3.20;0.70;;;15.20;99.90;;;;;;1933237;74;21142;-81
2022/09/11 04:45:18;;;;;;;2.62;0.80;;;15.20;99.90;;;;;;1927660;74;21199;-79
2022/09/11 04:48:10;;;;;;;1.32;0.68;;;15.20;99.90;;;;;;1921928;74;21145;-79
2022/09/11 04:51:03;;;;;;;1.32;0.65;;;15.20;99.90;;;;;;1916977;74;21047;-78
2022/09/11 04:53:56;;;;;;;2.33;1.07;;;15.20;99.90;;;;;;1912187;74;21085;-76
2022/09/11 04:56:49;;;;;;;1.02;0.60;;;15.20;99.90;;;;;;1911001;74;21514;-76
2022/09/11 04:59:41;;;;;;;2.17;0.60;;;15.10;99.90;;;;;;1910885;74;21494;-76
2022/09/11 05:02:35;;;;;;;3.60;0.78;;;15.10;99.90;;;;;;1912476;74;21127;-76
2022/09/11 05:05:26;;;;;;;1.60;0.80;;;15.00;99.90;;;;;;1899737;75;21099;-77
2022/09/11 05:08:19;;;;;;;3.08;0.70;;;15.10;99.90;;;;;;1922053;74;21054;-77
2022/09/11 05:11:13;;;;;;;3.22;0.80;;;15.10;99.90;;;;;;1921888;74;21152;-77
2022/09/11 05:14:04;;;;;;;2.12;0.80;;;15.10;99.90;;;;;;1920898;74;21110;-77
2022/09/11 05:16:58;;;;;;;2.47;0.75;;;15.10;99.90;;;;;;1900971;75;21106;-77
2022/09/11 05:19:50;;;;;;;2.02;0.90;;;15.10;99.90;;;;;;1884223;75;21118;-77
2022/09/11 05:22:43;;;;;;;2.55;0.80;;;15.10;99.90;;;;;;1897336;75;21099;-81
2022/09/11 05:25:37;;;;;;;2.35;0.80;;;15.10;99.90;;;;;;1893919;75;21040;-76
2022/09/11 05:28:30;;;;;;;2.22;0.88;;;15.10;99.90;;;;;;1889494;75;21107;-75
2022/09/11 05:34:03;;;;;;;2.08;0.85;;;15.20;99.90;;;;;;1929441;72;22261;-75
2022/09/11 05:36:56;;;;;;;1.12;0.70;;;15.20;99.90;;;;;;1885909;75;21132;-79
2022/09/11 05:39:51;;;;;;;1.42;0.70;;;15.20;99.90;;;;;;1903784;75;21063;-76
2022/09/11 05:42:43;;;;;;;4.05;1.20;;;15.20;99.90;;;;;;1892882;75;21075;-76
2022/09/11 05:45:34;;;;;;;2.33;0.65;;;15.20;99.90;;;;;;1905419;75;21105;-76
2022/09/11 05:48:28;;;;;;;3.65;1.02;;;15.10;99.90;;;;;;1889905;75;21062;-75
2022/09/11 05:51:22;;;;;;;4.28;0.85;;;15.20;99.90;;;;;;1905437;75;21103;-76
2022/09/11 05:54:14;;;;;;;3.90;0.95;;;15.10;99.90;;;;;;1885363;75;21129;-82
2022/09/11 05:59:47;;;;;;;4.53;0.80;;;15.10;99.90;;;;;;1972882;72;22330;-76
2022/09/11 06:02:40;;;;;;;2.65;1.00;;;15.10;99.90;;;;;;1923027;73;21179;-77
2022/09/11 06:05:32;;;;;;;1.92;0.88;;;15.10;99.90;;;;;;1917492;75;21079;-76
2022/09/11 06:08:24;;;;;;;1.45;0.70;;;15.10;99.90;;;;;;1935486;73;21030;-76
2022/09/11 06:11:18;;;;;;;2.33;0.82;;;15.20;99.90;;;;;;1927036;73;21076;-76
2022/09/11 06:14:12;;;;;;;2.12;0.78;;;15.20;99.90;;;;;;1928478;73;21089;-78
2022/09/11 06:17:05;;;;;;;1.85;0.85;;;15.30;99.90;;;;;;1930967;73;21097;-79
2022/09/11 06:19:57;;;;;;;2.25;1.02;;;15.30;99.90;;;;;;1922780;73;21122;-77
2022/09/11 06:22:49;;;;;;;2.58;0.95;;;15.30;99.90;;;;;;1937804;73;21127;-75
2022/09/11 06:25:52;;;;;;;2.58;0.70;;;15.40;99.90;;;;;;1923084;73;21069;-77
2022/09/11 06:28:43;;;;;;;2.98;0.93;;;15.50;99.90;;;;;;1917918;73;21078;-75
2022/09/11 06:31:36;;;;;;;2.87;0.90;;;15.50;99.90;;;;;;1919163;73;21149;-75
2022/09/11 06:34:30;;;;;;;1.50;0.88;;;15.50;99.90;;;;;;1919352;73;21144;-76
2022/09/11 06:37:23;;;;;;;1.70;0.60;;;15.50;99.90;;;;;;1921160;73;21149;-76
2022/09/11 06:40:17;;;;;;;2.87;0.75;;;15.50;99.90;;;;;;1920497;73;21089;-75
2022/09/11 06:43:10;;;;;;;2.00;0.70;;;15.60;99.90;;;;;;1920481;73;21162;-74
2022/09/11 06:46:05;;;;;;;1.22;0.60;;;15.60;99.90;;;;;;1919152;73;21678;-74
2022/09/11 06:48:57;;;;;;;2.45;0.80;;;15.60;99.90;;;;;;1920103;73;21129;-75
2022/09/11 06:51:51;;;;;;;2.08;0.82;;;15.60;99.90;;;;;;1920302;73;21603;-75
2022/09/11 06:54:43;;;;;;;1.05;0.60;;;15.70;99.90;;;;;;1923258;73;21662;-75
2022/09/11 06:57:37;;;;;;;1.92;0.60;;;15.80;99.90;;;;;;1925919;73;21196;-75
2022/09/11 07:00:31;;;;;;;1.22;0.60;;;15.80;99.90;;;;;;1908483;73;21181;-76
2022/09/11 07:03:24;;;;;;;2.40;1.02;;;15.90;99.90;;;;;;1911592;73;21246;-76
2022/09/11 07:06:17;;;;;;;2.85;0.80;;;16.00;99.90;;;;;;1921596;73;21199;-76
2022/09/11 07:09:12;;;;;;;1.37;0.80;;;16.00;99.90;;;;;;1920772;73;21274;-76
2022/09/11 07:12:06;;;;;;;3.10;0.80;;;16.00;99.90;;;;;;1910888;73;21267;-75
2022/09/11 07:14:58;;;;;;;1.60;1.00;;;16.10;99.90;;;;;;1908143;73;22066;-76
2022/09/11 07:17:51;;;;;;;2.72;0.98;;;16.20;99.90;;;;;;1921813;73;21144;-76
2022/09/11 07:20:42;;;;;;;0.80;0.55;;;16.30;99.90;;;;;;1909604;73;21184;-76
2022/09/11 07:23:34;;;;;;;1.65;0.80;;;16.50;99.90;;;;;;1906717;73;21183;-76
2022/09/11 07:26:28;;;;;;;1.60;0.80;;;16.50;99.90;;;;;;1918992;73;21171;-76
2022/09/11 07:29:21;;;;;;;2.70;0.80;;;16.60;99.90;;;;;;1911832;73;21166;-76
2022/09/11 07:32:14;;;;;;;3.47;1.00;;;16.70;99.90;;;;;;1922629;73;21635;-76
2022/09/11 07:35:08;;;;;;;1.17;0.50;;;16.60;99.90;;;;;;1909147;73;21215;-76
2022/09/11 07:38:00;;;;;;;1.40;0.70;;;16.70;99.90;;;;;;1923178;73;21116;-76
2022/09/11 07:40:55;;;;;;;1.87;0.62;;;16.90;99.90;;;;;;1921302;73;21138;-77
2022/09/11 07:43:49;;;;;;;1.57;0.70;;;16.90;99.90;;;;;;1912876;73;21200;-77
2022/09/11 07:46:40;;;;;;;2.87;0.90;;;17.00;99.90;;;;;;1922752;73;21644;-78
2022/09/11 07:49:32;;;;;;;1.17;0.53;;;17.10;99.90;;;;;;1925451;73;21130;-76
2022/09/11 07:52:26;;;;;;;1.27;0.50;;;17.10;99.90;;;;;;1910229;73;21222;-75
2022/09/11 07:55:20;;;;;;;1.30;0.68;;;17.20;99.90;;;;;;1906088;73;21300;-76
2022/09/11 07:58:13;;;;;;;1.30;0.60;;;17.20;99.90;;;;;;1919474;73;21138;-76
2022/09/11 08:01:08;;;;;;;0.80;0.50;;;17.30;99.90;;;;;;1921952;73;21194;-76
2022/09/11 08:04:02;;;;;;;3.60;0.50;;;17.40;99.90;;;;;;1922101;73;21203;-76
2022/09/11 08:06:53;;;;;;;1.55;0.50;;;17.50;99.90;;;;;;1921977;73;21129;-76
2022/09/11 08:09:48;;;;;;;2.60;0.50;;;17.50;99.90;;;;;;1919240;73;21199;-76
2022/09/11 08:12:41;;;;;;;2.22;0.70;;;17.60;99.90;;;;;;1926350;73;21181;-76
2022/09/11 08:15:32;;;;;;;1.25;0.50;;;17.70;99.90;;;;;;1919186;73;21137;-76
2022/09/11 08:18:25;;;;;;;4.03;1.75;;;17.80;99.90;;;;;;1920394;73;21153;-76
2022/09/11 08:21:18;;;;;;;2.55;0.70;;;17.80;99.90;;;;;;1924080;73;21152;-75
2022/09/11 08:24:14;;;;;;;476.60;408.68;;;17.80;99.90;;;;;;1922920;73;21345;-91
2022/09/11 08:27:06;;;;;;;29.98;18.48;;;17.90;99.90;;;;;;1921850;73;21150;-78
2022/09/11 08:29:59;;;;;;;1.62;1.02;;;18.20;99.90;;;;;;1918081;73;21214;-76
2022/09/11 08:32:51;;;;;;;3.85;0.60;;;18.20;99.90;;;;;;1937362;73;21615;-76
2022/09/11 08:35:44;;;;;;;1.07;0.50;;;18.20;99.90;;;;;;1916408;75;21154;-75
2022/09/11 08:38:37;;;;;;;1.82;0.50;;;18.30;99.90;;;;;;1916602;75;21141;-76
2022/09/11 08:41:39;;;;;;;5.97;0.98;;;18.30;99.90;;;;;;1916652;75;21079;-77
2022/09/11 08:44:36;;;;;;;1.75;0.80;;;18.30;99.90;;;;;;1921088;73;21112;-77
2022/09/11 08:47:33;;;;;;;2.42;0.62;;;18.40;99.90;;;;;;1929034;73;21191;-75
2022/09/11 08:50:27;;;;;;;2.15;0.70;;;18.30;99.90;;;;;;1927054;73;21150;-75
2022/09/11 08:53:20;;;;;;;2.12;0.50;;;18.30;99.90;;;;;;1927518;73;21150;-75
2022/09/11 08:56:16;;;;;;;1.65;0.70;;;18.40;99.90;;;;;;1927675;73;21090;-75
2022/09/11 08:59:17;;;;;;;5.67;1.10;;;18.50;99.90;;;;;;1916251;75;21141;-77
2022/09/11 09:02:22;;;;;;;2.25;0.40;;;18.60;99.90;;;;;;1924898;73;21177;-76
2022/09/11 09:05:21;;;;;;;1.02;0.40;;;18.70;99.90;;;;;;1925998;74;21055;-76
2022/09/11 09:08:38;;;;;;;1.62;0.60;;;18.60;99.90;;;;;;1926137;74;21142;-76
2022/09/11 09:11:36;;;;;;;1.32;0.80;;;18.50;99.90;;;;;;1925862;74;21179;-76
2022/09/11 09:14:45;;;;;;;1.72;0.90;;;18.50;99.90;;;;;;1913888;73;21098;-77
2022/09/11 09:17:43;;;;;;;3.35;2.27;;;18.50;99.90;;;;;;1952465;73;21203;-72
2022/09/11 09:20:37;;;;;;;2.55;1.32;;;18.50;99.90;;;;;;1928597;73;21172;-73
2022/09/11 09:23:33;;;;;;;2.35;0.98;;;18.70;99.90;;;;;;1878811;75;21598;-74
2022/09/11 09:26:28;;;;;;;1.57;0.50;;;18.80;99.90;;;;;;1917184;73;21245;-74
2022/09/11 09:29:22;;;;;;;1.75;0.53;;;18.80;99.90;;;;;;1925662;73;21176;-74
2022/09/11 09:32:20;;;;;;;2.42;0.78;;;19.00;99.90;;;;;;1922004;73;21169;-73
2022/09/11 09:35:20;;;;;;;3.50;0.80;;;19.10;99.90;;;;;;1916345;73;21107;-77
2022/09/11 09:38:15;;;;;;;3.37;0.62;;;19.30;99.90;;;;;;1928789;73;21076;-76
2022/09/11 09:41:32;;;;;;;1.07;0.42;;;19.50;99.90;;;;;;1921231;73;21206;-77
2022/09/11 09:44:35;;;;;;;2.33;0.50;;;19.40;99.90;;;;;;1926252;73;21128;-76
2022/09/11 09:47:28;;;;;;;2.62;0.70;;;19.50;99.90;;;;;;1929383;73;21119;-76
2022/09/11 09:50:23;;;;;;;1.67;0.60;;;19.60;99.90;;;;;;1920105;73;21055;-76
2022/09/11 09:53:22;;;;;;;2.47;0.50;;;19.80;99.90;;;;;;1924992;73;21261;-76
2022/09/11 09:56:19;;;;;;;2.52;0.70;;;19.80;99.90;;;;;;1919393;73;21155;-75
2022/09/11 09:59:17;;;;;;;0.93;0.50;;;19.90;99.90;;;;;;1930278;73;21533;-75
2022/09/11 10:02:09;;;;;;;1.27;0.50;;;19.80;99.90;;;;;;1912221;74;21573;-76
2022/09/11 10:05:17;;;;;;;1.50;0.70;;;19.90;99.90;;;;;;1869958;76;21055;-76
2022/09/11 10:08:12;;;;;;;2.00;0.40;;;19.90;99.90;;;;;;1933332;73;21131;-76
2022/09/11 10:11:06;;;;;;;1.07;0.40;;;19.90;99.90;;;;;;1904048;74;21063;-80
2022/09/11 10:13:58;;;;;;;56.13;36.17;;;19.90;99.90;;;;;;1915418;74;21087;-81
2022/09/11 10:16:50;;;;;;;2.22;0.65;;;19.90;99.90;;;;;;1916904;74;21098;-76
2022/09/11 10:19:50;;;;;;;1.15;0.50;;;20.00;99.90;;;;;;1909707;74;21369;-75
2022/09/11 10:22:42;;;;;;;0.62;0.40;;;20.10;99.90;;;;;;1909574;74;21160;-78
2022/09/11 10:25:36;;;;;;;1.20;0.98;;;20.10;99.90;;;;;;1912322;73;21156;-78
2022/09/11 10:28:32;;;;;;;1.27;0.50;;;20.10;99.90;;;;;;1904384;74;21067;-76
2022/09/11 10:31:25;;;;;;;0.70;0.28;;;20.40;99.90;;;;;;1916705;73;21168;-76
2022/09/11 10:34:19;;;;;;;0.80;0.40;;;20.40;99.90;;;;;;1906346;74;21051;-77
2022/09/11 10:37:18;;;;;;;0.88;0.57;;;20.40;99.90;;;;;;1912102;74;21501;-77
2022/09/11 10:40:21;;;;;;;1.20;0.40;;;20.50;99.90;;;;;;1908760;74;21166;-78
2022/09/11 10:43:25;;;;;;;1.32;0.53;;;20.60;99.90;;;;;;1911631;74;21611;-77
2022/09/11 10:46:33;;;;;;;1.05;0.40;;;20.60;99.90;;;;;;1907796;74;21082;-78
2022/09/11 10:49:26;;;;;;;;;;;20.70;99.90;;;;;;1906124;74;21511;-78
2022/09/11 10:52:21;;;;;;;1.15;0.50;;;20.70;99.90;;;;;;1907617;74;20428;-77
2022/09/11 10:55:14;;;;;;;0.70;0.30;;;20.80;99.90;;;;;;1906386;74;21361;-77
2022/09/11 10:58:10;;;;;;;4.40;0.70;;;20.90;99.90;;;;;;1921345;74;21086;-80
2022/09/11 11:01:12;;;;;;;1.75;0.40;;;21.00;99.90;;;;;;1916869;74;21202;-82
2022/09/11 11:04:11;;;;;;;1.35;0.42;;;21.10;99.90;;;;;;1919644;73;21186;-75
2022/09/11 11:07:07;;;;;;;1.80;0.40;;;21.20;99.90;;;;;;1930390;73;21177;-76
2022/09/11 11:10:05;;;;;;;2.10;0.37;;;21.20;99.90;;;;;;1922547;73;21118;-75
2022/09/11 11:15:56;;;;;;;2.90;0.50;;;21.30;99.90;;;;;;1921507;72;22698;-74
2022/09/11 11:21:59;;;;;;;1.40;0.50;;;21.40;99.90;;;;;;1936806;72;23462;-76
2022/09/11 11:28:06;;;;;;;1.02;0.40;;;21.70;99.90;;;;;;1930974;72;22121;-76
2022/09/11 11:34:09;;;;;;;1.60;0.40;;;21.80;99.90;;;;;;1910801;72;28006;-75
2022/09/11 11:37:03;;;;;;;0.68;0.40;;;22.10;99.90;;;;;;1909468;74;21144;-75
2022/09/11 11:39:58;;;;;;;1.95;0.47;;;22.10;99.90;;;;;;1910609;75;21612;-77
2022/09/11 11:45:41;;;;;;;0.98;0.30;;;22.20;99.90;;;;;;1925251;72;22653;-76
2022/09/11 11:48:38;;;;;;;1.62;0.40;;;22.40;99.90;;;;;;1909932;73;21558;-75
2022/09/11 11:51:32;;;;;;;1.47;0.40;;;22.40;99.90;;;;;;1897135;75;21121;-75
2022/09/11 11:54:27;;;;;;;0.82;0.53;;;22.60;99.90;;;;;;1924202;73;21080;-75
2022/09/11 11:57:21;;;;;;;0.78;0.30;;;22.50;99.90;;;;;;1931734;73;21103;-77
2022/09/11 12:00:17;;;;;;;1.27;0.45;;;22.40;99.90;;;;;;1922709;73;21098;-77
2022/09/11 12:03:13;;;;;;;0.95;0.40;;;22.50;99.90;;;;;;1914112;74;21080;-74
2022/09/11 12:06:07;;;;;;;1.90;0.50;;;22.40;99.90;;;;;;1912020;73;21131;-75
2022/09/11 12:11:39;;;;;;;1.37;0.65;;;22.80;99.90;;;;;;1945840;72;22313;-75
2022/09/11 12:14:33;;;;;;;1.15;0.40;;;22.80;99.90;;;;;;1902908;75;21106;-75
2022/09/11 12:17:28;;;;;;;18.57;14.83;;;22.80;99.90;;;;;;1902751;73;21039;-83
2022/09/11 12:20:39;;;;;;;1.17;0.68;;;23.10;99.90;;;;;;1894544;75;21166;-75
2022/09/11 12:26:32;;;;;;;0.47;0.33;;;23.30;99.90;;;;;;1937031;72;22115;-75
2022/09/11 12:32:44;;;;;;;0.57;0.28;;;23.40;99.90;;;;;;1932025;72;22204;-75
2022/09/11 12:38:25;;;;;;;1.22;0.50;;;23.40;99.90;;;;;;1931454;72;22469;-79
2022/09/11 12:41:20;;;;;;;0.95;0.30;;;23.50;99.90;;;;;;1901116;75;21168;-76
2022/09/11 12:47:17;;;;;;;1.02;0.40;;;23.70;99.90;;;;;;1941674;72;22227;-76
2022/09/11 12:53:01;;;;;;;1.22;0.50;;;23.80;99.90;;;;;;1937055;72;22319;-76
2022/09/11 12:56:00;;;;;;;1.07;0.37;;;23.80;99.90;;;;;;1918374;74;21093;-76
2022/09/11 12:58:56;;;;;;;0.90;0.40;;;24.00;99.90;;;;;;1910496;74;21106;-77
2022/09/11 13:04:30;;;;;;;1.05;0.53;;;24.20;99.90;;;;;;1938380;72;22614;-77
2022/09/11 13:10:08;;;;;;;1.90;0.42;;;24.40;99.90;;;;;;1931158;72;22164;-78
2022/09/11 13:13:02;;;;;;;80.50;69.82;;;24.50;99.90;;;;;;1899921;75;21886;-83
2022/09/11 13:15:57;;;;;;;5.10;4.58;;;24.50;99.90;;;;;;1900768;74;21140;-75
2022/09/11 13:18:49;;;;;;;1.10;0.50;;;24.50;99.90;;;;;;1903273;75;21143;-73
2022/09/11 13:24:25;;;;;;;1.02;0.40;;;24.60;99.90;;;;;;1933585;72;22161;-78
2022/09/11 13:27:20;;;;;;;1.05;0.40;;;24.80;99.90;;;;;;1925141;73;21153;-79
2022/09/11 13:30:15;;;;;;;1.17;0.50;;;24.80;99.90;;;;;;1919278;74;21137;-78
2022/09/11 13:33:09;;;;;;;0.53;0.33;;;24.90;99.90;;;;;;1843612;76;21201;-78
2022/09/11 13:36:02;;;;;;;0.40;0.20;;;24.80;99.90;;;;;;1917525;74;21078;-78
2022/09/11 13:38:57;;;;;;;0.93;0.33;;;24.80;99.90;;;;;;1941736;73;21125;-79
2022/09/11 13:41:50;;;;;;;0.70;0.30;;;24.90;99.90;;;;;;1913936;73;21048;-78
2022/09/11 13:44:45;;;;;;;0.68;0.30;;;24.90;99.90;;;;;;1903539;73;21228;-78
2022/09/11 13:47:41;;;;;;;2.15;0.40;;;24.90;99.90;;;;;;1919161;73;21110;-78
2022/09/11 13:50:33;;;;;;;0.75;0.40;;;25.00;99.90;;;;;;1901248;73;21106;-78
2022/09/11 13:53:25;;;;;;;1.15;0.40;;;25.10;99.90;;;;;;1904701;74;21149;-78
2022/09/11 13:56:37;;;;;;;1.10;0.40;;;25.40;99.90;;;;;;1929085;73;21038;-78
2022/09/11 13:59:41;;;;;;;1.30;0.40;;;25.70;99.90;;;;;;1921821;73;21055;-86
2022/09/11 14:05:22;;;;;;;1.42;0.40;;;26.00;99.90;;;;;;1935316;72;22193;-77
2022/09/11 14:08:27;;;;;;;1.45;0.42;;;26.10;99.90;;;;;;1919802;73;21526;-76
2022/09/11 14:11:25;;;;;;;1.77;0.40;;;27.00;99.90;;;;;;1888685;75;21143;-75
2022/09/11 14:14:22;;;;;;;2.42;0.47;;;28.50;99.90;;;;;;1903090;75;21125;-76
2022/09/11 14:19:53;;;;;;;0.85;0.30;;;30.80;98.00;;;;;;1936283;72;22145;-76
2022/09/11 14:22:47;;;;;;;1.15;0.35;;;31.30;93.60;;;;;;1890214;74;21118;-76
2022/09/11 14:25:40;;;;;;;1.12;0.50;;;31.40;93.60;;;;;;1898177;74;21047;-77
2022/09/11 14:28:39;;;;;;;1.55;0.50;;;31.10;92.00;;;;;;1892760;74;21102;-77
2022/09/11 14:31:34;;;;;;;0.90;0.40;;;30.90;91.50;;;;;;1900616;74;21565;-77
2022/09/11 14:34:28;;;;;;;20.80;18.75;;;31.00;90.90;;;;;;1897399;74;21178;-87
2022/09/11 14:40:03;;;;;;;0.70;0.40;;;31.40;89.40;;;;;;1932380;72;22763;-76
2022/09/11 14:42:54;;;;;;;0.62;0.40;;;31.80;88.40;;;;;;1902119;73;21054;-76
2022/09/11 14:45:46;;;;;;;1.37;0.40;;;32.50;85.50;;;;;;1908340;75;21215;-76
2022/09/11 14:48:37;;;;;;;0.88;0.40;;;32.20;84.20;;;;;;1897848;75;21102;-76
2022/09/11 14:51:29;;;;;;;1.47;0.30;;;32.40;83.60;;;;;;1899914;75;21262;-77
2022/09/11 14:54:22;;;;;;;0.53;0.30;;;32.80;81.80;;;;;;1919727;73;21502;-76
2022/09/11 14:59:53;;;;;;;1.20;0.40;;;32.10;81.30;;;;;;1937865;72;22236;-75
2022/09/11 15:02:44;;;;;;;0.72;0.33;;;32.00;81.40;;;;;;1884606;75;21241;-77
2022/09/11 15:05:35;;;;;;;1.98;0.53;;;32.00;81.30;;;;;;1899170;75;21062;-88
2022/09/11 15:08:27;;;;;;;2.33;1.30;;;32.50;81.10;;;;;;1904878;75;21068;-77
2022/09/11 15:11:19;;;;;;;1.00;0.37;;;32.90;79.80;;;;;;1894819;75;21095;-75
2022/09/11 15:14:11;;;;;;;1.47;0.42;;;32.50;79.40;;;;;;1891524;75;21095;-75
2022/09/11 15:19:44;;;;;;;0.90;0.40;;;32.70;78.30;;;;;;1960152;72;22307;-78
2022/09/11 15:22:35;;;;;;;1.20;0.50;;;32.60;78.10;;;;;;1918507;73;21160;-76
2022/09/11 15:25:26;;;;;;;3.77;0.53;;;32.60;78.30;;;;;;1921497;73;21125;-76
2022/09/11 15:28:18;;;;;;;0.62;0.30;;;32.90;77.70;;;;;;1922134;73;21063;-76
2022/09/11 15:31:11;;;;;;;1.32;0.50;;;32.80;76.60;;;;;;1916823;73;21148;-77
2022/09/11 15:34:03;;;;;;;0.70;0.37;;;33.10;76.70;;;;;;1934074;73;21180;-77
2022/09/11 15:36:55;;;;;;;1.98;0.50;;;32.90;75.70;;;;;;1928987;73;21635;-77
2022/09/11 15:39:47;;;;;;;0.80;0.40;;;32.60;75.90;;;;;;1930029;73;21098;-77
2022/09/11 15:42:38;;;;;;;1.10;0.50;;;32.90;75.40;;;;;;1917299;73;21260;-76
2022/09/11 15:45:30;;;;;;;2.52;0.53;;;32.90;75.10;;;;;;1925883;73;21191;-85
2022/09/11 15:48:22;;;;;;;0.53;0.47;;;33.20;74.70;;;;;;1919167;73;21607;-78
2022/09/11 15:51:16;;;;;;;1.42;0.60;;;33.10;74.00;;;;;;1932132;73;21217;-77
2022/09/11 15:54:10;;;;;;;1.52;0.40;;;32.80;74.50;;;;;;1922065;73;21031;-82
2022/09/11 15:57:01;;;;;;;0.80;0.40;;;33.20;74.20;;;;;;1920987;73;21559;-76
2022/09/11 15:59:53;;;;;;;1.45;0.40;;;33.10;72.80;;;;;;1928748;73;21192;-77
2022/09/11 16:02:44;;;;;;;1.35;0.55;;;32.90;73.40;;;;;;1937202;73;21207;-79
2022/09/11 16:05:41;;;;;;;1.55;0.35;;;32.80;73.90;;;;;;1919259;73;21156;-79
2022/09/11 16:08:31;;;;;;;;;;;32.80;72.30;;;;;;1932883;73;21087;-79